Time;durP1;ratioP1;P1;durP2;ratioP2;P2;SDS_P1;SDS_P2;PMS_P1;PMS_P2;Temp;Humidity;BMP_temperature;BMP_pressure;BME280_temperature;BME280_humidity;BME280_pressure;Samples;Min_cycle;Max_cycle;Signal;HPM_P1;HPM_P2
2021/10/30 00:01:29;;;;;;;11.17;7.10;;;;;;;;;;4963034;28;20457;-78
2021/10/30 00:03:57;;;;;;;8.87;6.73;;;;;;;;;;4972031;28;20448;-78
2021/10/30 00:06:26;;;;;;;11.47;7.60;;;;;;;;;;4959266;28;20470;-79
2021/10/30 00:08:54;;;;;;;9.33;7.57;;;;;;;;;;4956952;28;20485;-78
2021/10/30 00:11:22;;;;;;;11.50;8.20;;;;;;;;;;4970318;28;20553;-77
2021/10/30 00:13:50;;;;;;;10.70;7.60;;;;;;;;;;4969351;28;20539;-78
2021/10/30 00:16:19;;;;;;;10.00;7.60;;;;;;;;;;4971157;28;20804;-78
2021/10/30 00:18:46;;;;;;;9.33;7.40;;;;;;;;;;4969355;28;20500;-78
2021/10/30 00:21:14;;;;;;;8.20;7.37;;;;;;;;;;4953401;28;20473;-81
2021/10/30 00:23:41;;;;;;;10.47;7.40;;;;;;;;;;4956792;28;20974;-79
2021/10/30 00:26:08;;;;;;;9.43;6.50;;;;;;;;;;4958305;28;20468;-81
2021/10/30 00:28:35;;;;;;;9.77;6.47;;;;;;;;;;4967454;28;20495;-80
2021/10/30 00:31:03;;;;;;;9.83;7.50;;;;;;;;;;4965715;28;20524;-80
2021/10/30 00:33:31;;;;;;;10.77;7.07;;;;;;;;;;4955464;28;20525;-80
2021/10/30 00:35:58;;;;;;;8.90;7.07;;;;;;;;;;4967612;28;20462;-80
2021/10/30 00:38:26;;;;;;;10.37;8.10;;;;;;;;;;4962243;28;20503;-80
2021/10/30 00:40:53;;;;;;;10.33;7.93;;;;;;;;;;4957162;28;20516;-80
2021/10/30 00:43:21;;;;;;;12.90;7.07;;;;;;;;;;4970138;28;20444;-79
2021/10/30 00:45:48;;;;;;;9.87;7.00;;;;;;;;;;4938309;28;20627;-80
2021/10/30 00:48:16;;;;;;;8.67;7.37;;;;;;;;;;4951407;29;20695;-81
2021/10/30 00:50:45;;;;;;;9.63;6.60;;;;;;;;;;4935822;28;20989;-78
2021/10/30 00:53:15;;;;;;;7.20;6.33;;;;;;;;;;4964979;28;20446;-79
2021/10/30 00:55:43;;;;;;;11.27;6.50;;;;;;;;;;4957129;28;20429;-78
2021/10/30 00:58:12;;;;;;;11.07;7.07;;;;;;;;;;4954769;28;20468;-81
2021/10/30 01:00:39;;;;;;;8.60;6.57;;;;;;;;;;4970454;28;20493;-79
2021/10/30 01:03:06;;;;;;;10.30;7.27;;;;;;;;;;4969220;28;20468;-79
2021/10/30 01:05:34;;;;;;;10.07;7.17;;;;;;;;;;4971010;28;20464;-78
2021/10/30 01:08:02;;;;;;;9.23;7.17;;;;;;;;;;4969835;28;20464;-77
2021/10/30 01:10:29;;;;;;;9.77;6.60;;;;;;;;;;4970373;28;21008;-81
2021/10/30 01:12:57;;;;;;;8.63;6.83;;;;;;;;;;4972785;28;20453;-78
2021/10/30 01:15:24;;;;;;;7.63;6.20;;;;;;;;;;4965498;28;20474;-79
2021/10/30 01:17:51;;;;;;;8.80;6.03;;;;;;;;;;4956562;28;20446;-78
2021/10/30 01:20:26;;;;;;;8.80;6.37;;;;;;;;;;4963247;28;20855;-80
2021/10/30 01:22:53;;;;;;;11.03;6.63;;;;;;;;;;4951714;28;20448;-79
2021/10/30 01:25:23;;;;;;;8.07;6.03;;;;;;;;;;4955472;28;20464;-78
2021/10/30 01:27:50;;;;;;;8.83;6.50;;;;;;;;;;4955187;28;20453;-79
2021/10/30 01:30:17;;;;;;;7.80;6.93;;;;;;;;;;4965344;28;20996;-80
2021/10/30 01:32:53;;;;;;;8.93;6.53;;;;;;;;;;4951804;28;20456;-81
2021/10/30 01:35:27;;;;;;;7.00;5.70;;;;;;;;;;4965839;28;20453;-79
2021/10/30 01:37:55;;;;;;;7.23;5.93;;;;;;;;;;4955512;28;20471;-79
2021/10/30 01:40:22;;;;;;;6.97;6.00;;;;;;;;;;4956711;28;20863;-78
2021/10/30 01:42:58;;;;;;;9.23;6.67;;;;;;;;;;4946738;28;20539;-77
2021/10/30 01:45:25;;;;;;;7.60;6.00;;;;;;;;;;4970249;28;20448;-79
2021/10/30 01:47:53;;;;;;;8.53;5.80;;;;;;;;;;4960467;28;20459;-78
2021/10/30 01:50:20;;;;;;;7.37;5.57;;;;;;;;;;4952552;28;20481;-80
2021/10/30 01:52:49;;;;;;;6.70;5.80;;;;;;;;;;4958339;28;21032;-79
2021/10/30 01:55:18;;;;;;;6.23;5.50;;;;;;;;;;4958169;28;20509;-79
2021/10/30 01:57:46;;;;;;;7.20;5.77;;;;;;;;;;4941577;28;20429;-80
2021/10/30 02:00:14;;;;;;;13.10;6.13;;;;;;;;;;4951069;28;20484;-79
2021/10/30 02:02:41;;;;;;;6.23;5.10;;;;;;;;;;4950635;29;20446;-79
2021/10/30 02:05:09;;;;;;;6.23;5.37;;;;;;;;;;4950744;29;20862;-78
2021/10/30 02:07:36;;;;;;;7.60;5.67;;;;;;;;;;4951738;28;20472;-79
2021/10/30 02:10:06;;;;;;;8.17;5.37;;;;;;;;;;4954726;28;20461;-81
2021/10/30 02:12:33;;;;;;;6.90;5.50;;;;;;;;;;4968512;28;20795;-79
2021/10/30 02:15:00;;;;;;;6.40;5.80;;;;;;;;;;4971986;28;20453;-79
2021/10/30 02:17:27;;;;;;;6.27;5.10;;;;;;;;;;4956991;28;20437;-81
2021/10/30 02:19:54;;;;;;;7.10;5.53;;;;;;;;;;4958880;28;20488;-77
2021/10/30 02:22:22;;;;;;;7.50;6.10;;;;;;;;;;4967184;28;20464;-78
2021/10/30 02:24:49;;;;;;;8.93;5.50;;;;;;;;;;4954935;28;20894;-78
2021/10/30 02:27:17;;;;;;;7.83;5.70;;;;;;;;;;4968568;28;20465;-78
2021/10/30 02:29:45;;;;;;;6.20;5.60;;;;;;;;;;4973284;28;20845;-80
2021/10/30 02:32:12;;;;;;;7.07;5.73;;;;;;;;;;4968756;28;20461;-80
2021/10/30 02:34:40;;;;;;;9.17;6.20;;;;;;;;;;4957187;28;20551;-78
2021/10/30 02:37:07;;;;;;;7.43;5.60;;;;;;;;;;4963641;28;20457;-77
2021/10/30 02:39:35;;;;;;;9.67;6.27;;;;;;;;;;4953626;28;20480;-77
2021/10/30 02:42:02;;;;;;;7.20;6.10;;;;;;;;;;4941288;28;20468;-79
2021/10/30 02:44:31;;;;;;;6.20;5.40;;;;;;;;;;4969819;28;20444;-77
2021/10/30 02:46:59;;;;;;;9.40;6.60;;;;;;;;;;4968187;28;20467;-79
2021/10/30 02:49:26;;;;;;;6.70;5.00;;;;;;;;;;4970581;28;20477;-78
2021/10/30 02:51:53;;;;;;;7.90;6.20;;;;;;;;;;4971804;28;20467;-80
2021/10/30 02:54:20;;;;;;;8.07;5.97;;;;;;;;;;4966348;28;20438;-80
2021/10/30 02:56:48;;;;;;;7.43;5.70;;;;;;;;;;4959799;28;20787;-77
2021/10/30 02:59:15;;;;;;;7.30;5.80;;;;;;;;;;4956327;28;20477;-80
2021/10/30 03:01:44;;;;;;;7.83;6.03;;;;;;;;;;4951542;28;20484;-79
2021/10/30 03:04:11;;;;;;;8.17;5.97;;;;;;;;;;4972755;28;20440;-78
2021/10/30 03:06:38;;;;;;;8.10;5.83;;;;;;;;;;4971377;28;20456;-79
2021/10/30 03:09:06;;;;;;;8.70;6.67;;;;;;;;;;4969807;28;20893;-80
2021/10/30 03:11:33;;;;;;;6.80;5.50;;;;;;;;;;4959221;28;20464;-79
2021/10/30 03:14:00;;;;;;;8.43;6.57;;;;;;;;;;4956347;28;21277;-79
2021/10/30 03:16:27;;;;;;;6.20;5.60;;;;;;;;;;4972610;28;20662;-79
2021/10/30 03:18:56;;;;;;;5.47;4.90;;;;;;;;;;4972203;28;20548;-80
2021/10/30 03:21:23;;;;;;;7.17;6.13;;;;;;;;;;4956278;28;20488;-78
2021/10/30 03:23:51;;;;;;;6.10;4.93;;;;;;;;;;4956604;28;21182;-79
2021/10/30 03:26:18;;;;;;;7.07;5.63;;;;;;;;;;4958474;28;20480;-79
2021/10/30 03:28:45;;;;;;;9.37;5.50;;;;;;;;;;4955993;28;20446;-78
2021/10/30 03:31:12;;;;;;;6.90;5.37;;;;;;;;;;4961075;28;20958;-80
2021/10/30 03:33:40;;;;;;;8.23;6.40;;;;;;;;;;4970077;28;20471;-79
2021/10/30 03:36:08;;;;;;;7.20;5.73;;;;;;;;;;4968875;28;20464;-79
2021/10/30 03:38:37;;;;;;;6.60;5.27;;;;;;;;;;4957440;28;20465;-79
2021/10/30 03:41:04;;;;;;;6.87;5.60;;;;;;;;;;4960366;28;20927;-79
2021/10/30 03:43:31;;;;;;;6.17;5.10;;;;;;;;;;4941238;29;20438;-78
2021/10/30 03:45:58;;;;;;;8.43;5.60;;;;;;;;;;4951911;28;20996;-79
2021/10/30 03:48:25;;;;;;;12.53;5.20;;;;;;;;;;4952466;29;20442;-78
2021/10/30 03:50:53;;;;;;;6.33;5.00;;;;;;;;;;4963789;28;20494;-79
2021/10/30 03:53:21;;;;;;;11.33;5.50;;;;;;;;;;4965614;28;20457;-79
2021/10/30 03:55:49;;;;;;;7.60;5.67;;;;;;;;;;4956252;28;20461;-79
2021/10/30 03:58:16;;;;;;;7.53;5.53;;;;;;;;;;4940397;29;20800;-79
2021/10/30 04:00:44;;;;;;;5.90;4.83;;;;;;;;;;4950995;28;20501;-77
2021/10/30 04:03:12;;;;;;;6.50;5.33;;;;;;;;;;4971344;28;20456;-81
2021/10/30 04:05:39;;;;;;;6.10;4.70;;;;;;;;;;4971617;28;20526;-79
2021/10/30 04:08:07;;;;;;;5.50;4.87;;;;;;;;;;4958148;28;20463;-80
2021/10/30 04:10:35;;;;;;;7.70;5.20;;;;;;;;;;4962438;28;20523;-78
2021/10/30 04:13:03;;;;;;;6.60;5.67;;;;;;;;;;4958689;28;21051;-79
2021/10/30 04:15:30;;;;;;;7.50;5.67;;;;;;;;;;4964031;28;20460;-78
2021/10/30 04:17:57;;;;;;;6.80;4.53;;;;;;;;;;4970961;28;20449;-78
2021/10/30 04:20:25;;;;;;;8.07;5.80;;;;;;;;;;4968898;28;20504;-80
2021/10/30 04:22:52;;;;;;;7.03;5.20;;;;;;;;;;4971563;28;20444;-77
2021/10/30 04:25:19;;;;;;;7.27;5.53;;;;;;;;;;4966530;28;20453;-79
2021/10/30 04:27:48;;;;;;;6.00;5.27;;;;;;;;;;4957460;28;20453;-79
2021/10/30 04:30:15;;;;;;;6.97;5.00;;;;;;;;;;4954832;28;20470;-80
2021/10/30 04:32:43;;;;;;;6.23;5.13;;;;;;;;;;4960179;28;20818;-79
2021/10/30 04:35:11;;;;;;;6.40;4.93;;;;;;;;;;4960410;28;20500;-80
2021/10/30 04:37:39;;;;;;;6.47;5.43;;;;;;;;;;4964545;28;20467;-78
2021/10/30 04:40:07;;;;;;;5.13;4.50;;;;;;;;;;4944141;28;20532;-80
2021/10/30 04:42:34;;;;;;;7.07;5.20;;;;;;;;;;4947010;28;20587;-79
2021/10/30 04:45:04;;;;;;;9.70;5.43;;;;;;;;;;4957415;28;20436;-77
2021/10/30 04:47:31;;;;;;;8.00;5.43;;;;;;;;;;4955064;28;20558;-81
2021/10/30 04:49:58;;;;;;;6.47;5.17;;;;;;;;;;4970275;28;20476;-81
2021/10/30 04:52:26;;;;;;;7.07;4.93;;;;;;;;;;4974444;28;20445;-78
2021/10/30 04:54:53;;;;;;;6.13;5.20;;;;;;;;;;4959081;28;20968;-77
2021/10/30 04:57:20;;;;;;;7.30;5.07;;;;;;;;;;4970863;28;20954;-79
2021/10/30 04:59:47;;;;;;;5.60;5.00;;;;;;;;;;4957733;28;20966;-80
2021/10/30 05:02:16;;;;;;;9.40;5.43;;;;;;;;;;4955681;28;20950;-79
2021/10/30 05:04:48;;;;;;;6.00;4.90;;;;;;;;;;4953632;29;20473;-80
2021/10/30 05:07:17;;;;;;;7.90;5.10;;;;;;;;;;4956964;28;20450;-80
2021/10/30 05:09:44;;;;;;;7.20;5.40;;;;;;;;;;4957052;28;20575;-77
2021/10/30 05:12:11;;;;;;;6.10;5.10;;;;;;;;;;4957462;28;20817;-80
2021/10/30 05:14:38;;;;;;;7.20;5.10;;;;;;;;;;4959516;28;20445;-80
2021/10/30 05:17:06;;;;;;;6.30;4.90;;;;;;;;;;4960070;28;20436;-81
2021/10/30 05:19:34;;;;;;;6.50;4.57;;;;;;;;;;4968371;28;20543;-81
2021/10/30 05:22:02;;;;;;;7.67;5.63;;;;;;;;;;4971188;28;20579;-80
2021/10/30 05:24:29;;;;;;;9.07;5.23;;;;;;;;;;4969415;28;20992;-79
2021/10/30 05:26:56;;;;;;;6.47;5.33;;;;;;;;;;4970817;28;20511;-80
2021/10/30 05:29:23;;;;;;;5.70;5.00;;;;;;;;;;4969836;28;20511;-79
2021/10/30 05:31:50;;;;;;;5.53;4.50;;;;;;;;;;4972860;28;20770;-78
2021/10/30 05:34:17;;;;;;;5.70;4.80;;;;;;;;;;4969518;28;20479;-80
2021/10/30 05:36:46;;;;;;;6.17;4.63;;;;;;;;;;4958999;28;20467;-80
2021/10/30 05:39:16;;;;;;;7.43;5.00;;;;;;;;;;4957394;28;20615;-78
2021/10/30 05:41:43;;;;;;;5.43;4.67;;;;;;;;;;4950350;29;20489;-81
2021/10/30 05:44:11;;;;;;;6.80;4.60;;;;;;;;;;4963076;28;20463;-79
2021/10/30 05:46:38;;;;;;;5.80;4.60;;;;;;;;;;4963494;28;20457;-78
2021/10/30 05:49:06;;;;;;;5.83;4.60;;;;;;;;;;4967402;28;20487;-80
2021/10/30 05:51:36;;;;;;;6.40;4.50;;;;;;;;;;4975458;28;20469;-79
2021/10/30 05:54:21;;;;;;;6.03;4.50;;;;;;;;;;4976331;28;20441;-80
2021/10/30 05:56:52;;;;;;;9.47;5.00;;;;;;;;;;4962308;28;20503;-78
2021/10/30 05:59:19;;;;;;;7.83;5.00;;;;;;;;;;4964470;28;20469;-78
2021/10/30 06:01:47;;;;;;;6.73;5.17;;;;;;;;;;4960965;28;20495;-79
2021/10/30 06:04:14;;;;;;;5.43;4.70;;;;;;;;;;4953956;28;20551;-77
2021/10/30 06:06:41;;;;;;;7.83;5.30;;;;;;;;;;4969989;28;20813;-78
2021/10/30 06:09:08;;;;;;;6.10;5.00;;;;;;;;;;4972315;28;20465;-78
2021/10/30 06:11:36;;;;;;;4.40;4.00;;;;;;;;;;4969456;28;20464;-78
2021/10/30 06:14:06;;;;;;;5.60;4.93;;;;;;;;;;4958873;28;21178;-80
2021/10/30 06:16:33;;;;;;;7.30;4.77;;;;;;;;;;4959886;28;20440;-77
2021/10/30 06:19:00;;;;;;;6.90;5.90;;;;;;;;;;4940211;28;20477;-78
2021/10/30 06:21:28;;;;;;;5.77;4.73;;;;;;;;;;4960316;28;20567;-78
2021/10/30 06:24:03;;;;;;;6.13;5.30;;;;;;;;;;4973764;28;20479;-78
2021/10/30 06:26:30;;;;;;;7.10;5.63;;;;;;;;;;4976222;28;20803;-76
2021/10/30 06:28:57;;;;;;;8.23;5.67;;;;;;;;;;4961329;28;20493;-77
2021/10/30 06:31:28;;;;;;;12.97;5.40;;;;;;;;;;4962784;28;20438;-77
2021/10/30 06:33:55;;;;;;;5.77;4.90;;;;;;;;;;4974732;28;20472;-79
2021/10/30 06:36:23;;;;;;;5.93;5.13;;;;;;;;;;4976446;28;20463;-78
2021/10/30 06:38:50;;;;;;;6.90;5.37;;;;;;;;;;4974646;28;20461;-79
2021/10/30 06:41:20;;;;;;;6.17;4.80;;;;;;;;;;4953418;28;20498;-80
2021/10/30 06:43:47;;;;;;;10.30;5.67;;;;;;;;;;4966668;28;20473;-77
2021/10/30 06:46:15;;;;;;;6.87;5.07;;;;;;;;;;4962425;28;20438;-78
2021/10/30 06:48:43;;;;;;;6.60;5.40;;;;;;;;;;4965033;28;20465;-78
2021/10/30 06:51:12;;;;;;;7.37;4.43;;;;;;;;;;4964801;28;20488;-77
2021/10/30 06:53:39;;;;;;;9.37;6.47;;;;;;;;;;4960699;28;20464;-78
2021/10/30 06:56:06;;;;;;;6.60;5.23;;;;;;;;;;4959106;28;20461;-79
2021/10/30 06:58:33;;;;;;;6.90;5.30;;;;;;;;;;4971110;28;20492;-80
2021/10/30 07:01:00;;;;;;;8.80;5.70;;;;;;;;;;4962106;28;20438;-79
2021/10/30 07:03:28;;;;;;;8.33;6.07;;;;;;;;;;4959686;28;20453;-77
2021/10/30 07:05:56;;;;;;;8.70;5.93;;;;;;;;;;4955603;28;20468;-79
2021/10/30 07:08:23;;;;;;;5.57;4.77;;;;;;;;;;4954590;29;20961;-80
2021/10/30 07:10:51;;;;;;;5.27;4.70;;;;;;;;;;4955365;28;20486;-79
2021/10/30 07:13:18;;;;;;;9.57;5.80;;;;;;;;;;4958536;28;20473;-79
2021/10/30 07:15:46;;;;;;;9.50;6.23;;;;;;;;;;4962993;28;20456;-79
2021/10/30 07:18:14;;;;;;;6.10;5.20;;;;;;;;;;4963899;28;20539;-78
2021/10/30 07:20:41;;;;;;;7.27;5.90;;;;;;;;;;4968091;28;20492;-80
2021/10/30 07:23:09;;;;;;;7.93;5.80;;;;;;;;;;4972433;28;20560;-79
2021/10/30 07:25:37;;;;;;;6.40;5.47;;;;;;;;;;4973894;28;20453;-78
2021/10/30 07:28:04;;;;;;;8.30;5.43;;;;;;;;;;4972032;28;20468;-79
2021/10/30 07:30:32;;;;;;;6.97;5.37;;;;;;;;;;4967950;28;20468;-77
2021/10/30 07:32:59;;;;;;;6.80;5.83;;;;;;;;;;4960156;28;20461;-78
2021/10/30 07:35:26;;;;;;;6.87;6.17;;;;;;;;;;4960413;28;20704;-81
2021/10/30 07:37:58;;;;;;;5.83;5.17;;;;;;;;;;4966503;28;20471;-79
2021/10/30 07:40:27;;;;;;;7.40;5.57;;;;;;;;;;4973350;28;20468;-77
2021/10/30 07:42:55;;;;;;;8.03;6.80;;;;;;;;;;4973047;28;20488;-79
2021/10/30 07:45:22;;;;;;;8.40;6.00;;;;;;;;;;4968885;28;20452;-78
2021/10/30 07:47:49;;;;;;;7.87;6.33;;;;;;;;;;4961207;28;20469;-78
2021/10/30 07:50:16;;;;;;;8.23;6.23;;;;;;;;;;4958721;28;20485;-79
2021/10/30 07:52:43;;;;;;;8.40;6.13;;;;;;;;;;4969825;28;20468;-78
2021/10/30 07:55:11;;;;;;;6.40;5.77;;;;;;;;;;4964822;28;20461;-78
2021/10/30 07:57:39;;;;;;;8.07;5.90;;;;;;;;;;4967494;28;20472;-79
2021/10/30 08:00:08;;;;;;;7.03;6.33;;;;;;;;;;4954907;28;20469;-79
2021/10/30 08:02:35;;;;;;;11.10;6.00;;;;;;;;;;4963674;28;20524;-78
2021/10/30 08:05:02;;;;;;;10.00;5.97;;;;;;;;;;4959912;28;20561;-78
2021/10/30 08:07:29;;;;;;;7.13;5.83;;;;;;;;;;4956720;28;20819;-79
2021/10/30 08:09:56;;;;;;;8.90;5.70;;;;;;;;;;4958826;28;20480;-78
2021/10/30 08:12:24;;;;;;;8.03;6.27;;;;;;;;;;4959821;28;22684;-78
2021/10/30 08:14:52;;;;;;;5.87;5.30;;;;;;;;;;4968785;28;20942;-78
2021/10/30 08:17:19;;;;;;;14.53;5.03;;;;;;;;;;4971393;28;20943;-79
2021/10/30 08:19:47;;;;;;;7.00;5.83;;;;;;;;;;4960720;28;20493;-79
2021/10/30 08:22:14;;;;;;;8.43;5.60;;;;;;;;;;4957953;28;20511;-78
2021/10/30 08:24:41;;;;;;;9.37;6.10;;;;;;;;;;4953585;29;20787;-78
2021/10/30 08:27:08;;;;;;;6.40;5.53;;;;;;;;;;4953606;29;20465;-77
2021/10/30 08:29:35;;;;;;;7.00;5.30;;;;;;;;;;4958917;28;20481;-81
2021/10/30 08:32:04;;;;;;;7.70;5.53;;;;;;;;;;4959327;28;20463;-81
2021/10/30 08:34:31;;;;;;;5.63;5.03;;;;;;;;;;4973013;28;20452;-80
2021/10/30 08:36:58;;;;;;;6.03;5.37;;;;;;;;;;4972022;28;20573;-82
2021/10/30 08:39:26;;;;;;;9.43;5.67;;;;;;;;;;4972434;28;20465;-81
2021/10/30 08:41:53;;;;;;;9.40;4.90;;;;;;;;;;4960590;28;20509;-79
2021/10/30 08:44:20;;;;;;;6.30;5.57;;;;;;;;;;4957014;28;20451;-79
2021/10/30 08:46:48;;;;;;;6.77;4.93;;;;;;;;;;4959954;28;20459;-82
2021/10/30 08:49:18;;;;;;;6.20;5.03;;;;;;;;;;4963364;28;20497;-80
2021/10/30 08:51:45;;;;;;;5.70;4.90;;;;;;;;;;4956797;28;20960;-82
2021/10/30 08:54:12;;;;;;;5.17;4.60;;;;;;;;;;4956922;28;20475;-83
2021/10/30 08:56:40;;;;;;;8.43;4.90;;;;;;;;;;4968618;28;22402;-87
2021/10/30 08:59:07;;;;;;;5.57;4.33;;;;;;;;;;4957106;28;20485;-82
2021/10/30 09:01:44;;;;;;;5.10;4.43;;;;;;;;;;4969430;28;20996;-79
2021/10/30 09:04:13;;;;;;;5.03;3.63;;;;;;;;;;4943665;28;20776;-82
2021/10/30 09:06:43;;;;;;;8.53;4.70;;;;;;;;;;4965475;28;20474;-86
2021/10/30 09:09:14;;;;;;;6.30;4.03;;;;;;;;;;4972176;28;20607;-83
2021/10/30 09:11:43;;;;;;;6.80;4.50;;;;;;;;;;4968487;28;20480;-85
2021/10/30 09:14:19;;;;;;;7.40;5.20;;;;;;;;;;4971231;28;20500;-80
2021/10/30 09:17:07;;;;;;;8.60;5.50;;;;;;;;;;4969345;28;20822;-78
2021/10/30 09:19:34;;;;;;;6.90;5.80;;;;;;;;;;4946339;28;20472;-82
2021/10/30 09:22:05;;;;;;;8.53;6.87;;;;;;;;;;4960370;28;21024;-81
2021/10/30 09:24:33;;;;;;;31.07;17.33;;;;;;;;;;4965127;28;20475;-80
2021/10/30 09:27:00;;;;;;;16.00;11.20;;;;;;;;;;4966492;28;20559;-86
2021/10/30 09:29:27;;;;;;;10.80;7.60;;;;;;;;;;4971959;28;20474;-83
2021/10/30 09:32:10;;;;;;;12.83;7.70;;;;;;;;;;4964549;28;20470;-78
2021/10/30 09:34:37;;;;;;;10.03;6.60;;;;;;;;;;4940882;28;20458;-80
2021/10/30 09:37:06;;;;;;;8.83;6.63;;;;;;;;;;4954789;28;20459;-82
2021/10/30 09:39:33;;;;;;;9.70;6.77;;;;;;;;;;4971541;28;20784;-82
2021/10/30 09:42:00;;;;;;;8.60;7.00;;;;;;;;;;4970296;28;20484;-82
2021/10/30 09:44:28;;;;;;;7.60;5.50;;;;;;;;;;4968251;28;20468;-79
2021/10/30 09:46:57;;;;;;;7.80;6.47;;;;;;;;;;4963247;28;20581;-81
2021/10/30 09:49:26;;;;;;;7.53;6.13;;;;;;;;;;4957746;28;20873;-81
2021/10/30 09:51:54;;;;;;;9.50;6.30;;;;;;;;;;4949363;28;20476;-80
2021/10/30 09:54:32;;;;;;;8.80;5.90;;;;;;;;;;4948353;28;20869;-80
2021/10/30 09:57:03;;;;;;;6.40;5.73;;;;;;;;;;4969943;28;20471;-79
2021/10/30 09:59:33;;;;;;;8.37;6.30;;;;;;;;;;4954007;28;20487;-78
2021/10/30 10:02:01;;;;;;;7.73;6.93;;;;;;;;;;4968648;28;20465;-79
2021/10/30 10:04:28;;;;;;;13.30;5.77;;;;;;;;;;4963412;28;20812;-78
2021/10/30 10:06:56;;;;;;;9.77;6.10;;;;;;;;;;4964069;28;20456;-78
2021/10/30 10:09:23;;;;;;;7.80;5.87;;;;;;;;;;4957604;28;20465;-79
2021/10/30 10:11:52;;;;;;;6.03;5.10;;;;;;;;;;4973007;28;20449;-79
2021/10/30 10:14:20;;;;;;;7.37;5.73;;;;;;;;;;4958076;28;20451;-80
2021/10/30 10:16:48;;;;;;;6.90;6.10;;;;;;;;;;4957603;28;20825;-80
2021/10/30 10:19:16;;;;;;;6.97;6.10;;;;;;;;;;4966236;28;20482;-80
2021/10/30 10:21:44;;;;;;;9.10;6.87;;;;;;;;;;4962726;28;20467;-79
2021/10/30 10:24:13;;;;;;;7.60;6.43;;;;;;;;;;4956183;28;20486;-80
2021/10/30 10:26:49;;;;;;;7.73;6.53;;;;;;;;;;4969152;28;20461;-78
2021/10/30 10:29:29;;;;;;;8.70;6.57;;;;;;;;;;4955020;28;20495;-79
2021/10/30 10:31:56;;;;;;;8.90;6.20;;;;;;;;;;4975680;28;20484;-79
2021/10/30 10:34:25;;;;;;;9.63;5.70;;;;;;;;;;4966963;28;20466;-81
2021/10/30 10:37:19;;;;;;;8.07;6.30;;;;;;;;;;4965251;28;20445;-79
2021/10/30 10:39:47;;;;;;;7.03;5.90;;;;;;;;;;4965550;28;20517;-80
2021/10/30 10:42:15;;;;;;;11.30;7.40;;;;;;;;;;4963496;28;20461;-78
2021/10/30 10:44:57;;;;;;;7.30;6.03;;;;;;;;;;4961796;28;20496;-83
2021/10/30 10:47:39;;;;;;;8.57;6.50;;;;;;;;;;4940738;28;20798;-81
2021/10/30 10:50:09;;;;;;;8.63;5.90;;;;;;;;;;4955576;28;20525;-77
2021/10/30 10:52:36;;;;;;;8.10;6.97;;;;;;;;;;4973102;28;20491;-75
2021/10/30 10:55:05;;;;;;;7.57;6.73;;;;;;;;;;4973596;28;20475;-78
2021/10/30 10:57:33;;;;;;;7.00;6.00;;;;;;;;;;4965381;28;20465;-77
2021/10/30 11:00:00;;;;;;;7.63;6.80;;;;;;;;;;4975556;28;20472;-78
2021/10/30 11:02:32;;;;;;;8.07;6.33;;;;;;;;;;4975410;28;20477;-76
2021/10/30 11:05:15;;;;;;;8.27;6.83;;;;;;;;;;4945008;28;20472;-77
2021/10/30 11:07:44;;;;;;;11.00;6.30;;;;;;;;;;4943824;29;20439;-78
2021/10/30 11:10:12;;;;;;;6.23;5.63;;;;;;;;;;4957032;28;20491;-77
2021/10/30 11:12:39;;;;;;;8.67;6.30;;;;;;;;;;4956878;28;20445;-79
2021/10/30 11:15:09;;;;;;;6.80;6.10;;;;;;;;;;4973160;28;20446;-79
2021/10/30 11:17:38;;;;;;;6.73;6.03;;;;;;;;;;4972684;28;20465;-78
2021/10/30 11:20:13;;;;;;;8.70;6.90;;;;;;;;;;4995025;28;20555;-79
2021/10/30 11:22:55;;;;;;;6.67;5.73;;;;;;;;;;4979077;28;20497;-78
2021/10/30 11:25:22;;;;;;;14.13;5.13;;;;;;;;;;4961932;28;20933;-77
2021/10/30 11:27:51;;;;;;;8.57;6.00;;;;;;;;;;4963318;28;20472;-78
2021/10/30 11:30:18;;;;;;;6.73;5.07;;;;;;;;;;4959588;28;20478;-79
2021/10/30 11:32:45;;;;;;;6.60;5.77;;;;;;;;;;4972917;28;20437;-78
2021/10/30 11:35:13;;;;;;;8.50;5.83;;;;;;;;;;4972687;28;21127;-78
2021/10/30 11:37:40;;;;;;;7.27;6.30;;;;;;;;;;4955953;28;20962;-77
2021/10/30 11:40:10;;;;;;;7.53;6.10;;;;;;;;;;4960488;28;20854;-77
2021/10/30 11:42:42;;;;;;;6.63;5.90;;;;;;;;;;4966503;28;20470;-78
2021/10/30 11:45:09;;;;;;;6.90;5.63;;;;;;;;;;4967505;28;20475;-77
2021/10/30 11:47:36;;;;;;;8.10;5.20;;;;;;;;;;4968262;28;20484;-82
2021/10/30 11:50:08;;;;;;;8.40;5.70;;;;;;;;;;4971710;28;20502;-82
2021/10/30 11:52:35;;;;;;;8.43;5.20;;;;;;;;;;4956665;28;20471;-79
2021/10/30 11:55:03;;;;;;;5.70;4.50;;;;;;;;;;4959157;28;22678;-81
2021/10/30 11:57:32;;;;;;;5.63;5.10;;;;;;;;;;4962018;28;20463;-83
2021/10/30 12:00:00;;;;;;;7.27;4.70;;;;;;;;;;4953257;28;20745;-76
2021/10/30 12:02:27;;;;;;;4.83;4.27;;;;;;;;;;4950243;29;20447;-80
2021/10/30 12:04:57;;;;;;;6.20;5.40;;;;;;;;;;4950657;29;20459;-80
2021/10/30 12:07:25;;;;;;;5.13;4.60;;;;;;;;;;4952028;28;20468;-78
2021/10/30 12:09:52;;;;;;;6.90;5.30;;;;;;;;;;4962856;28;20460;-78
2021/10/30 12:12:23;;;;;;;6.67;5.13;;;;;;;;;;4957449;28;20823;-77
2021/10/30 12:14:52;;;;;;;10.80;4.77;;;;;;;;;;4968308;28;20719;-84
2021/10/30 12:17:21;;;;;;;5.53;4.17;;;;;;;;;;4962077;28;21238;-79
2021/10/30 12:19:49;;;;;;;4.97;4.20;;;;;;;;;;4950605;28;20479;-78
2021/10/30 12:22:20;;;;;;;5.13;4.13;;;;;;;;;;4969081;28;20537;-80
2021/10/30 12:24:57;;;;;;;5.07;4.20;;;;;;;;;;4968370;28;20498;-76
2021/10/30 12:27:25;;;;;;;9.90;4.77;;;;;;;;;;4957946;28;20446;-79
2021/10/30 12:29:53;;;;;;;5.30;4.30;;;;;;;;;;4956940;28;20487;-77
2021/10/30 12:32:23;;;;;;;5.30;4.50;;;;;;;;;;4958246;28;20457;-77
2021/10/30 12:34:59;;;;;;;6.47;4.70;;;;;;;;;;4959014;28;20463;-78
2021/10/30 12:37:27;;;;;;;7.93;4.20;;;;;;;;;;4962910;28;20468;-79
2021/10/30 12:39:57;;;;;;;5.67;4.03;;;;;;;;;;4955927;28;20491;-79
2021/10/30 12:42:24;;;;;;;5.00;3.90;;;;;;;;;;4969300;28;20457;-78
2021/10/30 12:44:52;;;;;;;4.50;3.90;;;;;;;;;;4955117;29;20485;-79
2021/10/30 12:47:25;;;;;;;4.40;4.00;;;;;;;;;;4955352;28;20538;-82
2021/10/30 12:49:56;;;;;;;6.77;4.17;;;;;;;;;;4958341;28;20525;-79
2021/10/30 12:52:23;;;;;;;5.70;4.60;;;;;;;;;;4940135;29;20462;-79
2021/10/30 12:54:53;;;;;;;5.40;4.40;;;;;;;;;;4959552;28;20461;-78
2021/10/30 12:57:21;;;;;;;5.67;4.70;;;;;;;;;;4953480;28;20660;-78
2021/10/30 12:59:59;;;;;;;8.77;4.53;;;;;;;;;;4969608;28;20499;-79
2021/10/30 13:02:27;;;;;;;6.37;4.97;;;;;;;;;;4961447;28;20468;-79
2021/10/30 13:04:55;;;;;;;10.30;5.23;;;;;;;;;;4966892;28;20492;-81
2021/10/30 13:07:24;;;;;;;5.23;4.50;;;;;;;;;;4956042;28;20467;-80
2021/10/30 13:09:55;;;;;;;8.23;5.07;;;;;;;;;;4970209;28;20472;-78
2021/10/30 13:12:22;;;;;;;6.47;4.97;;;;;;;;;;4959819;28;20449;-79
2021/10/30 13:14:49;;;;;;;5.10;4.60;;;;;;;;;;4961282;28;20455;-81
2021/10/30 13:17:16;;;;;;;6.87;4.57;;;;;;;;;;4972068;28;20439;-80
2021/10/30 13:19:45;;;;;;;5.10;4.60;;;;;;;;;;4969766;28;20993;-82
2021/10/30 13:22:12;;;;;;;5.50;5.00;;;;;;;;;;4971543;28;21037;-79
2021/10/30 13:24:40;;;;;;;7.50;4.87;;;;;;;;;;4961726;28;20502;-79
2021/10/30 13:27:08;;;;;;;6.30;4.57;;;;;;;;;;4973701;28;20452;-79
2021/10/30 13:29:35;;;;;;;6.23;4.93;;;;;;;;;;4962838;28;20513;-80
2021/10/30 13:32:03;;;;;;;6.20;4.87;;;;;;;;;;4960060;28;20542;-78
2021/10/30 13:34:32;;;;;;;8.33;4.70;;;;;;;;;;4966474;28;20711;-80
2021/10/30 13:37:01;;;;;;;8.27;4.73;;;;;;;;;;4971400;28;20478;-77
2021/10/30 13:39:28;;;;;;;5.40;4.17;;;;;;;;;;4952574;28;20485;-82
2021/10/30 13:41:56;;;;;;;5.60;4.63;;;;;;;;;;4952354;29;20460;-77
2021/10/30 13:44:24;;;;;;;6.97;4.47;;;;;;;;;;4955766;28;20724;-78
2021/10/30 13:46:51;;;;;;;5.13;4.63;;;;;;;;;;4959716;28;20463;-78
2021/10/30 13:49:18;;;;;;;5.40;4.80;;;;;;;;;;4961521;28;20475;-81
2021/10/30 13:51:46;;;;;;;7.00;4.50;;;;;;;;;;4958771;28;20480;-78
2021/10/30 13:54:14;;;;;;;6.87;4.17;;;;;;;;;;4951730;29;20446;-80
2021/10/30 13:56:41;;;;;;;5.27;4.37;;;;;;;;;;4954508;28;20864;-82
2021/10/30 13:59:09;;;;;;;7.53;4.50;;;;;;;;;;4971545;28;20461;-76
2021/10/30 14:01:36;;;;;;;4.97;4.13;;;;;;;;;;4957448;28;20830;-78
2021/10/30 14:04:04;;;;;;;5.43;4.37;;;;;;;;;;4957779;28;20484;-79
2021/10/30 14:06:32;;;;;;;6.73;4.70;;;;;;;;;;4957638;28;21000;-77
2021/10/30 14:08:59;;;;;;;8.60;4.50;;;;;;;;;;4956036;28;20485;-80
2021/10/30 14:11:28;;;;;;;4.70;3.93;;;;;;;;;;4935483;29;20452;-80
2021/10/30 14:13:56;;;;;;;5.77;4.53;;;;;;;;;;4937243;28;20955;-78
2021/10/30 14:16:23;;;;;;;5.13;3.80;;;;;;;;;;4958690;28;20471;-79
2021/10/30 14:18:50;;;;;;;4.30;3.43;;;;;;;;;;4958519;28;20469;-80
2021/10/30 14:21:17;;;;;;;5.47;3.57;;;;;;;;;;4963734;28;20932;-79
2021/10/30 14:23:45;;;;;;;3.60;3.20;;;;;;;;;;4963332;28;22040;-78
2021/10/30 14:26:14;;;;;;;3.77;3.37;;;;;;;;;;4964292;28;20465;-78
2021/10/30 14:28:43;;;;;;;6.33;3.40;;;;;;;;;;4954150;28;20463;-81
2021/10/30 14:31:11;;;;;;;3.97;3.50;;;;;;;;;;4968197;28;20464;-76
2021/10/30 14:33:39;;;;;;;4.10;3.70;;;;;;;;;;4957523;28;20562;-78
2021/10/30 14:36:07;;;;;;;4.20;3.80;;;;;;;;;;4964636;28;20808;-79
2021/10/30 14:38:34;;;;;;;4.13;3.30;;;;;;;;;;4969459;28;20467;-78
2021/10/30 14:41:02;;;;;;;4.47;3.83;;;;;;;;;;4971202;28;20466;-80
2021/10/30 14:43:29;;;;;;;4.00;3.50;;;;;;;;;;4954099;28;20449;-79
2021/10/30 14:45:58;;;;;;;4.47;3.60;;;;;;;;;;4973571;28;20467;-80
2021/10/30 14:48:25;;;;;;;4.40;3.50;;;;;;;;;;4976585;28;20451;-78